Terminal Aerodrome Forecast
Issued by NWS

Home | Current Version | Previous Version | Text Only | Print | Product List | Glossary On
Versions: 1 2 3 4 5 6 7 8 9 10 11 12 13 14 15 16 17 18
460
FTUS45 KTFX 251723
TAFGTF
TAF
KGTF 251723Z 2518/2618 25015G25KT P6SM FEW070 SCT150
     FM260600 22014KT P6SM SCT040 BKN080 PROB30 2609/2614 4SM -SN
      SCT020 OVC035
     FM261400 23011KT P6SM SCT010 OVC025
      TEMPO 2614/2618 4SM -SN OVC010=

USA.gov is the U.S. government's official web portal to all federal, state and local government web resources and services.